createdAt,value
2018-06-09T00:02:02.915Z,20.80
2018-06-09T00:04:07.847Z,20.70
2018-06-09T00:06:12.810Z,20.70
2018-06-09T00:08:18.683Z,20.70
2018-06-09T00:10:23.538Z,20.60
2018-06-09T00:12:28.302Z,20.70
2018-06-09T00:14:33.258Z,20.60
2018-06-09T00:16:38.373Z,20.60
2018-06-09T00:18:43.153Z,20.60
2018-06-09T00:20:48.010Z,20.70
2018-06-09T00:22:52.797Z,20.60
2018-06-09T00:24:57.688Z,20.60
2018-06-09T00:27:02.546Z,20.50
2018-06-09T00:31:11.946Z,20.50
2018-06-09T00:33:16.742Z,20.60
2018-06-09T00:35:21.494Z,20.40
2018-06-09T00:37:26.283Z,20.40
2018-06-09T00:39:30.987Z,20.30
2018-06-09T00:41:35.737Z,20.30
2018-06-09T00:43:40.558Z,20.40
2018-06-09T00:45:45.386Z,20.30
2018-06-09T00:47:50.211Z,20.30
2018-06-09T00:49:54.905Z,20.20
2018-06-09T00:51:59.664Z,20.10
2018-06-09T00:54:04.517Z,20.10
2018-06-09T00:56:47.539Z,20.00
2018-06-09T00:58:52.282Z,19.90
2018-06-09T01:00:57.019Z,19.90
2018-06-09T01:03:01.839Z,19.90
2018-06-09T01:05:06.568Z,19.80
2018-06-09T01:09:15.746Z,19.80
2018-06-09T01:11:20.527Z,19.90
2018-06-09T01:13:25.399Z,19.90
2018-06-09T01:15:30.262Z,19.80
2018-06-09T01:17:35.138Z,19.80
2018-06-09T01:19:40.069Z,19.80
2018-06-09T01:21:44.885Z,19.90
2018-06-09T01:23:49.759Z,19.80
2018-06-09T01:25:54.530Z,19.80
2018-06-09T01:27:59.263Z,19.60
2018-06-09T01:30:05.859Z,19.50
2018-06-09T01:32:10.654Z,19.50
2018-06-09T01:34:15.499Z,19.40
2018-06-09T01:36:20.204Z,19.50
2018-06-09T01:38:24.962Z,19.50
2018-06-09T01:40:29.778Z,19.40
2018-06-09T01:42:34.582Z,19.40
2018-06-09T01:44:39.352Z,19.40
2018-06-09T01:46:44.046Z,19.40
2018-06-09T01:48:48.782Z,19.30
2018-06-09T01:50:53.591Z,19.20
2018-06-09T01:52:58.565Z,19.20
2018-06-09T01:55:03.314Z,19.20
2018-06-09T01:57:08.001Z,19.30
2018-06-09T01:59:12.662Z,19.20
2018-06-09T02:01:17.399Z,19.20
2018-06-09T02:03:22.100Z,19.30
2018-06-09T02:05:26.892Z,19.30
2018-06-09T02:07:31.643Z,19.30
2018-06-09T02:09:36.448Z,19.20
2018-06-09T02:11:41.214Z,19.20
2018-06-09T02:13:45.925Z,19.20
2018-06-09T02:15:50.777Z,19.20
2018-06-09T02:17:55.478Z,19.20
2018-06-09T02:20:00.185Z,19.20
2018-06-09T02:22:04.910Z,19.20
2018-06-09T02:24:09.722Z,19.30
2018-06-09T02:26:14.460Z,19.30
2018-06-09T02:28:19.248Z,19.30
2018-06-09T02:30:23.956Z,19.30
2018-06-09T02:32:28.672Z,19.20
2018-06-09T02:34:33.486Z,19.10
2018-06-09T02:36:38.305Z,19.20
2018-06-09T02:38:43.146Z,19.10
2018-06-09T02:40:48.050Z,19.00
2018-06-09T02:42:52.777Z,19.00
2018-06-09T02:44:57.535Z,19.00
2018-06-09T02:47:02.494Z,19.00
2018-06-09T02:49:07.277Z,18.90
2018-06-09T02:51:12.208Z,18.90
2018-06-09T02:53:16.940Z,18.80
2018-06-09T02:55:21.900Z,18.80
2018-06-09T02:57:26.707Z,18.80
2018-06-09T02:59:31.570Z,18.70
2018-06-09T03:01:36.245Z,18.70
2018-06-09T03:03:41.141Z,18.70
2018-06-09T03:05:45.980Z,18.80
2018-06-09T03:07:50.800Z,18.80
2018-06-09T03:09:55.601Z,18.80
2018-06-09T03:12:00.453Z,18.80
2018-06-09T03:14:05.324Z,18.80
2018-06-09T03:16:10.361Z,18.80
2018-06-09T03:18:15.170Z,18.90
2018-06-09T03:20:19.963Z,18.90
2018-06-09T03:22:24.776Z,18.80
2018-06-09T03:24:29.666Z,18.80
2018-06-09T03:26:34.441Z,18.80
2018-06-09T03:28:39.182Z,18.80
2018-06-09T03:30:43.894Z,18.80
2018-06-09T03:32:48.980Z,18.70
2018-06-09T03:34:53.858Z,18.70
2018-06-09T03:36:58.687Z,18.90
2018-06-09T03:39:04.068Z,18.90
2018-06-09T03:41:08.858Z,18.90
2018-06-09T03:43:13.716Z,18.90
2018-06-09T03:45:18.489Z,18.90
2018-06-09T03:47:23.425Z,18.90
2018-06-09T03:49:28.298Z,19.00
2018-06-09T03:51:33.185Z,19.00
2018-06-09T03:53:38.090Z,18.90
2018-06-09T03:55:42.897Z,18.80
2018-06-09T03:57:47.883Z,18.70
2018-06-09T03:59:52.651Z,18.80
2018-06-09T04:01:57.440Z,18.90
2018-06-09T04:04:02.400Z,18.80
2018-06-09T04:06:07.349Z,18.90
2018-06-09T04:08:12.186Z,18.90
2018-06-09T04:10:16.982Z,19.00
2018-06-09T04:12:21.757Z,19.00
2018-06-09T04:14:26.486Z,19.10
2018-06-09T04:16:32.568Z,19.00
2018-06-09T04:18:37.323Z,19.00
2018-06-09T04:22:46.889Z,19.00
2018-06-09T04:24:51.762Z,19.00
2018-06-09T04:26:56.613Z,19.00
2018-06-09T04:29:02.091Z,19.00
2018-06-09T04:31:07.117Z,18.90
2018-06-09T04:33:11.937Z,18.90
2018-06-09T04:35:16.657Z,18.80
2018-06-09T04:37:21.452Z,18.80
2018-06-09T04:39:26.164Z,18.70
2018-06-09T04:41:31.272Z,18.70
2018-06-09T04:43:36.288Z,18.70
2018-06-09T04:45:41.414Z,18.90
2018-06-09T04:47:46.298Z,18.90
2018-06-09T04:49:51.082Z,18.90
2018-06-09T04:51:55.986Z,19.10
2018-06-09T04:54:00.893Z,19.00
2018-06-09T04:56:05.870Z,18.90
2018-06-09T04:58:10.909Z,18.90
2018-06-09T05:00:15.779Z,18.90
2018-06-09T05:02:20.641Z,18.90
2018-06-09T05:04:25.493Z,18.90
2018-06-09T05:06:30.607Z,19.10
2018-06-09T05:08:35.457Z,19.30
2018-06-09T05:10:40.246Z,19.40
2018-06-09T05:12:45.113Z,19.40
2018-06-09T05:14:49.836Z,19.60
2018-06-09T05:16:54.761Z,19.70
2018-06-09T05:18:59.551Z,19.60
2018-06-09T05:21:04.456Z,19.50
2018-06-09T05:23:09.285Z,19.60
2018-06-09T05:25:14.321Z,19.40
2018-06-09T05:27:19.167Z,19.30
2018-06-09T05:29:24.094Z,19.20
2018-06-09T05:31:29.118Z,19.20
2018-06-09T05:33:33.990Z,19.10
2018-06-09T05:35:38.907Z,19.00
2018-06-09T05:37:45.290Z,18.90
2018-06-09T05:39:50.208Z,19.00
2018-06-09T05:41:55.152Z,19.10
2018-06-09T05:44:00.039Z,19.20
2018-06-09T05:46:05.320Z,19.20
2018-06-09T05:48:10.365Z,19.30
2018-06-09T05:50:15.460Z,19.30
2018-06-09T05:52:20.456Z,19.20
2018-06-09T05:54:25.354Z,19.20
2018-06-09T05:56:30.393Z,19.30
2018-06-09T05:58:35.584Z,19.20
2018-06-09T06:00:40.435Z,19.30
2018-06-09T06:02:47.380Z,19.30
2018-06-09T06:04:53.302Z,19.40
2018-06-09T06:06:59.843Z,19.40
2018-06-09T06:09:06.402Z,19.40
2018-06-09T06:11:11.782Z,19.50
2018-06-09T06:13:16.661Z,19.40
2018-06-09T06:15:21.444Z,19.50
2018-06-09T06:17:26.491Z,19.70
2018-06-09T06:19:31.255Z,19.80
2018-06-09T06:21:36.080Z,20.20
2018-06-09T06:23:40.856Z,20.30
2018-06-09T06:25:46.064Z,20.40
2018-06-09T06:27:51.031Z,20.30
2018-06-09T06:29:57.777Z,20.40
2018-06-09T06:32:03.007Z,20.40
2018-06-09T06:34:08.958Z,20.30
2018-06-09T06:36:13.851Z,20.30
2018-06-09T06:38:18.883Z,20.40
2018-06-09T06:40:23.890Z,20.60
2018-06-09T06:42:29.775Z,20.60
2018-06-09T06:44:35.108Z,20.70
2018-06-09T06:46:40.205Z,20.80
2018-06-09T06:48:45.543Z,21.00
2018-06-09T06:50:50.336Z,21.00
2018-06-09T06:52:55.189Z,21.30
2018-06-09T06:55:00.004Z,21.10
2018-06-09T06:59:09.722Z,21.00
2018-06-09T07:01:14.487Z,21.10
2018-06-09T07:03:19.241Z,21.00
2018-06-09T07:05:24.003Z,21.00
2018-06-09T07:07:28.881Z,21.20
2018-06-09T07:09:33.718Z,21.30
2018-06-09T07:11:38.645Z,21.40
2018-06-09T07:13:43.570Z,21.40
2018-06-09T07:15:48.424Z,21.60
2018-06-09T07:17:53.226Z,21.60
2018-06-09T07:19:57.986Z,21.70
2018-06-09T07:22:02.850Z,21.50
2018-06-09T07:24:07.550Z,21.40
2018-06-09T07:26:12.344Z,21.60
2018-06-09T07:28:17.213Z,21.80
2018-06-09T07:30:21.939Z,21.80
2018-06-09T07:32:26.799Z,21.90
2018-06-09T07:36:36.197Z,21.90
2018-06-09T07:38:41.784Z,21.90
2018-06-09T07:40:46.926Z,21.90
2018-06-09T07:42:51.877Z,22.00
2018-06-09T07:44:56.714Z,21.90
2018-06-09T07:47:01.543Z,21.70
2018-06-09T07:49:06.375Z,21.50
2018-06-09T07:51:11.182Z,21.50
2018-06-09T07:53:16.003Z,21.60
2018-06-09T07:55:20.703Z,21.60
2018-06-09T07:57:25.479Z,21.60
2018-06-09T07:59:30.313Z,21.60
2018-06-09T08:01:35.068Z,21.70
2018-06-09T08:05:54.897Z,21.70
2018-06-09T08:07:59.807Z,22.20
2018-06-09T08:10:04.561Z,22.30
2018-06-09T08:12:09.597Z,22.20
2018-06-09T08:14:14.529Z,22.40
2018-06-09T08:16:19.458Z,22.30
2018-06-09T08:18:24.392Z,22.10
2018-06-09T08:20:29.384Z,22.10
2018-06-09T08:22:34.661Z,22.10
2018-06-09T08:24:39.416Z,22.10
2018-06-09T08:26:44.226Z,22.00
2018-06-09T08:28:48.945Z,22.00
2018-06-09T08:30:53.681Z,21.80
2018-06-09T08:32:58.386Z,21.80
2018-06-09T08:35:03.148Z,21.60
2018-06-09T08:37:07.838Z,21.50
2018-06-09T08:39:12.700Z,21.50
2018-06-09T08:41:17.604Z,21.60
2018-06-09T08:43:22.371Z,21.60
2018-06-09T08:45:27.219Z,21.50
2018-06-09T08:47:32.021Z,21.80
2018-06-09T08:49:36.816Z,21.80
2018-06-09T08:51:41.607Z,21.80
2018-06-09T08:53:46.402Z,21.80
2018-06-09T08:55:51.468Z,22.00
2018-06-09T08:57:56.167Z,21.70
2018-06-09T09:00:01.128Z,21.60
2018-06-09T09:02:06.338Z,21.80
2018-06-09T09:04:11.237Z,22.00
2018-06-09T09:06:16.068Z,21.80
2018-06-09T09:08:20.874Z,22.00
2018-06-09T09:10:25.643Z,22.00
2018-06-09T09:12:30.388Z,22.40
2018-06-09T09:14:35.148Z,22.30
2018-06-09T09:16:39.919Z,22.40
2018-06-09T09:18:44.802Z,22.50
2018-06-09T09:20:50.004Z,22.60
2018-06-09T09:22:54.715Z,22.60
2018-06-09T09:25:00.570Z,22.80
2018-06-09T09:27:05.472Z,23.00
2018-06-09T09:29:10.320Z,22.80
2018-06-09T09:33:20.220Z,22.80
2018-06-09T09:35:25.015Z,22.80
2018-06-09T09:37:29.788Z,23.00
2018-06-09T09:39:34.633Z,22.90
2018-06-09T09:41:40.517Z,22.90
2018-06-09T09:43:45.185Z,23.00
2018-06-09T09:45:49.942Z,23.10
2018-06-09T09:47:54.665Z,23.10
2018-06-09T09:49:59.416Z,23.20
2018-06-09T09:52:04.217Z,23.30
2018-06-09T09:54:09.011Z,23.10
2018-06-09T09:56:14.675Z,23.30
2018-06-09T09:58:19.519Z,23.20
2018-06-09T10:00:29.389Z,23.20
2018-06-09T10:02:34.287Z,23.30
2018-06-09T10:04:39.386Z,23.20
2018-06-09T10:06:44.070Z,22.90
2018-06-09T10:08:48.849Z,22.90
2018-06-09T10:10:53.663Z,23.00
2018-06-09T10:12:58.496Z,23.20
2018-06-09T10:15:05.245Z,23.10
2018-06-09T10:17:10.469Z,23.20
2018-06-09T10:19:15.449Z,23.10
2018-06-09T10:21:20.454Z,23.20
2018-06-09T10:23:25.460Z,23.30
2018-06-09T10:25:30.417Z,23.10
2018-06-09T10:27:35.353Z,23.10
2018-06-09T10:29:40.504Z,23.20
2018-06-09T10:31:45.537Z,23.10
2018-06-09T10:33:50.695Z,22.90
2018-06-09T10:35:55.572Z,22.90
2018-06-09T10:38:00.563Z,22.80
2018-06-09T10:40:05.609Z,22.80
2018-06-09T10:42:10.719Z,23.00
2018-06-09T10:44:15.648Z,23.30
2018-06-09T10:46:20.962Z,23.30
2018-06-09T10:48:25.838Z,23.30
2018-06-09T10:50:30.667Z,23.20
2018-06-09T10:52:35.709Z,23.50
2018-06-09T10:54:40.705Z,23.50
2018-06-09T10:56:45.688Z,23.70
2018-06-09T10:58:50.890Z,23.70
2018-06-09T11:00:56.112Z,23.70
2018-06-09T11:03:01.242Z,23.70
2018-06-09T11:05:06.949Z,23.60
2018-06-09T11:07:12.063Z,23.60
2018-06-09T11:09:16.906Z,23.70
2018-06-09T11:11:21.702Z,23.80
2018-06-09T11:13:26.607Z,23.80
2018-06-09T11:15:31.728Z,23.80
2018-06-09T11:17:36.772Z,23.80
2018-06-09T11:19:41.789Z,23.80
2018-06-09T11:23:52.101Z,23.90
2018-06-09T11:25:57.177Z,24.00
2018-06-09T11:28:02.211Z,24.10
2018-06-09T11:30:07.215Z,24.20
2018-06-09T11:32:12.065Z,24.20
2018-06-09T11:34:16.988Z,24.40
2018-06-09T11:36:21.905Z,24.50
2018-06-09T11:38:27.093Z,24.40
2018-06-09T11:40:32.183Z,24.50
2018-06-09T11:42:37.260Z,24.50
2018-06-09T11:44:42.356Z,24.60
2018-06-09T11:46:47.312Z,24.80
2018-06-09T11:48:53.430Z,24.70
2018-06-09T11:50:58.617Z,24.70
2018-06-09T11:53:03.680Z,24.80
2018-06-09T11:55:08.944Z,24.90
2018-06-09T11:57:14.280Z,24.80
2018-06-09T11:59:19.181Z,24.90
2018-06-09T12:01:25.092Z,25.10
2018-06-09T12:03:30.132Z,25.00
2018-06-09T12:05:35.235Z,25.00
2018-06-09T12:07:40.240Z,25.20
2018-06-09T12:09:45.373Z,25.30
2018-06-09T12:11:50.309Z,25.10
2018-06-09T12:13:55.619Z,24.80
2018-06-09T12:16:01.570Z,24.90
2018-06-09T12:18:07.477Z,25.10
2018-06-09T12:20:12.636Z,25.20
2018-06-09T12:22:17.811Z,25.20
2018-06-09T12:24:23.387Z,25.20
2018-06-09T12:26:28.456Z,25.40
2018-06-09T12:28:33.487Z,25.30
2018-06-09T12:30:39.061Z,25.40
2018-06-09T12:32:44.423Z,25.60
2018-06-09T12:34:50.158Z,25.60
2018-06-09T12:36:55.124Z,25.70
2018-06-09T12:39:00.030Z,25.80
2018-06-09T12:41:05.162Z,25.80
2018-06-09T12:43:10.567Z,26.00
2018-06-09T12:45:15.849Z,26.00
2018-06-09T12:47:21.408Z,26.10
2018-06-09T12:49:26.397Z,26.10
2018-06-09T12:51:31.435Z,26.10
2018-06-09T12:53:36.316Z,25.90
2018-06-09T12:55:41.232Z,25.90
2018-06-09T12:57:46.059Z,26.00
2018-06-09T12:59:51.106Z,26.00
2018-06-09T13:01:56.107Z,26.00
2018-06-09T13:04:01.053Z,26.10
2018-06-09T13:06:06.075Z,26.30
2018-06-09T13:08:11.172Z,26.20
2018-06-09T13:10:16.049Z,26.30
2018-06-09T13:12:20.911Z,26.20
2018-06-09T13:14:25.976Z,26.30
2018-06-09T13:16:31.087Z,26.40
2018-06-09T13:18:36.337Z,26.60
2018-06-09T13:20:41.646Z,26.70
2018-06-09T13:22:46.644Z,26.60
2018-06-09T13:24:51.776Z,26.70
2018-06-09T13:26:58.100Z,26.80
2018-06-09T13:29:09.978Z,26.60
2018-06-09T13:31:14.978Z,26.60
2018-06-09T13:33:20.116Z,26.70
2018-06-09T13:35:25.124Z,26.60
2018-06-09T13:37:30.123Z,26.50
2018-06-09T13:39:35.198Z,26.70
2018-06-09T13:41:40.103Z,26.70
2018-06-09T13:43:45.048Z,26.60
2018-06-09T13:45:49.984Z,26.60
2018-06-09T13:47:57.689Z,26.70
2018-06-09T13:50:08.276Z,26.70
2018-06-09T13:52:13.293Z,26.90
2018-06-09T13:54:18.284Z,26.80
2018-06-09T13:56:23.379Z,26.90
2018-06-09T13:58:28.390Z,26.90
2018-06-09T14:00:33.293Z,26.90
2018-06-09T14:02:38.162Z,26.70
2018-06-09T14:06:46.065Z,26.70
2018-06-09T14:11:06.097Z,26.90
2018-06-09T14:13:11.080Z,27.00
2018-06-09T14:15:16.209Z,27.00
2018-06-09T14:17:21.312Z,27.20
2018-06-09T14:19:26.194Z,27.20
2018-06-09T14:21:31.293Z,27.20
2018-06-09T14:23:36.016Z,27.00
2018-06-09T14:25:40.994Z,27.20
2018-06-09T14:27:46.166Z,27.30
2018-06-09T14:29:51.179Z,27.20
2018-06-09T14:31:56.134Z,27.20
2018-06-09T14:34:01.458Z,27.10
2018-06-09T14:36:06.696Z,27.30
2018-06-09T14:38:11.774Z,27.20
2018-06-09T14:40:16.629Z,27.30
2018-06-09T14:42:21.595Z,27.30
2018-06-09T14:44:26.448Z,27.70
2018-06-09T14:46:31.338Z,27.60
2018-06-09T14:48:38.285Z,27.70
2018-06-09T14:50:43.501Z,27.80
2018-06-09T14:52:48.495Z,27.60
2018-06-09T14:54:53.352Z,27.50
2018-06-09T14:56:58.440Z,27.90
2018-06-09T14:59:03.402Z,27.90
2018-06-09T15:01:08.549Z,28.00
2018-06-09T15:03:13.497Z,28.00
2018-06-09T15:05:18.527Z,27.80
2018-06-09T15:07:23.632Z,27.60
2018-06-09T15:09:28.492Z,27.60
2018-06-09T15:11:34.307Z,27.70
2018-06-09T15:13:39.430Z,27.90
2018-06-09T15:15:44.558Z,28.00
2018-06-09T15:17:49.449Z,28.00
2018-06-09T15:19:54.521Z,28.00
2018-06-09T15:21:59.586Z,28.00
2018-06-09T15:24:04.606Z,28.20
2018-06-09T15:26:09.666Z,28.40
2018-06-09T15:28:14.637Z,28.30
2018-06-09T15:30:19.868Z,28.20
2018-06-09T15:32:25.000Z,28.20
2018-06-09T15:34:30.347Z,28.10
2018-06-09T15:36:35.923Z,28.40
2018-06-09T15:38:41.151Z,28.60
2018-06-09T15:40:46.230Z,28.50
2018-06-09T15:42:51.226Z,28.30
2018-06-09T15:44:56.301Z,28.10
2018-06-09T15:47:01.432Z,28.00
2018-06-09T15:49:06.900Z,28.10
2018-06-09T15:51:11.977Z,28.10
2018-06-09T15:53:19.711Z,28.30
2018-06-09T15:55:24.709Z,28.30
2018-06-09T15:57:29.684Z,28.30
2018-06-09T15:59:34.728Z,28.20
2018-06-09T16:01:39.735Z,28.20
2018-06-09T16:03:44.689Z,28.40
2018-06-09T16:05:49.873Z,28.40
2018-06-09T16:07:54.836Z,28.50
2018-06-09T16:09:59.662Z,28.70
2018-06-09T16:12:04.493Z,28.70
2018-06-09T16:14:10.115Z,28.40
2018-06-09T16:16:16.593Z,28.40
2018-06-09T16:18:21.693Z,28.60
2018-06-09T16:20:26.854Z,28.70
2018-06-09T16:22:31.948Z,28.70
2018-06-09T16:24:36.852Z,28.70
2018-06-09T16:26:41.950Z,28.70
2018-06-09T16:28:46.802Z,28.80
2018-06-09T16:30:54.539Z,28.80
2018-06-09T16:32:59.439Z,29.00
2018-06-09T16:35:04.361Z,29.00
2018-06-09T16:37:09.367Z,29.20
2018-06-09T16:39:14.377Z,29.20
2018-06-09T16:41:19.390Z,29.40
2018-06-09T16:43:24.277Z,29.20
2018-06-09T16:45:29.206Z,29.10
2018-06-09T16:47:34.134Z,29.00
2018-06-09T16:49:39.209Z,29.00
2018-06-09T16:51:44.165Z,29.20
2018-06-09T16:53:49.012Z,29.20
2018-06-09T16:55:53.809Z,29.30
2018-06-09T16:57:58.714Z,29.30
2018-06-09T17:00:03.773Z,29.40
2018-06-09T17:02:08.669Z,29.50
2018-06-09T17:04:13.366Z,29.40
2018-06-09T17:06:18.233Z,29.20
2018-06-09T17:08:23.662Z,29.20
2018-06-09T17:10:28.426Z,29.30
2018-06-09T17:12:33.212Z,29.30
2018-06-09T17:14:37.998Z,29.10
2018-06-09T17:16:43.233Z,29.10
2018-06-09T17:18:48.139Z,29.10
2018-06-09T17:20:53.348Z,28.80
2018-06-09T17:22:58.529Z,28.80
2018-06-09T17:25:03.626Z,29.10
2018-06-09T17:27:08.672Z,28.80
2018-06-09T17:29:13.599Z,28.60
2018-06-09T17:31:18.493Z,28.60
2018-06-09T17:33:23.485Z,28.50
2018-06-09T17:35:28.844Z,28.40
2018-06-09T17:37:34.246Z,28.40
2018-06-09T17:39:39.238Z,28.40
2018-06-09T17:41:44.134Z,28.40
2018-06-09T17:43:49.010Z,28.50
2018-06-09T17:45:53.992Z,28.50
2018-06-09T17:47:58.938Z,28.50
2018-06-09T17:50:04.059Z,28.30
2018-06-09T17:52:08.926Z,28.40
2018-06-09T17:54:13.798Z,28.30
2018-06-09T17:56:18.618Z,28.10
2018-06-09T17:58:24.473Z,28.20
2018-06-09T18:00:29.474Z,27.90
2018-06-09T18:02:34.395Z,27.80
2018-06-09T18:04:39.314Z,27.90
2018-06-09T18:06:45.615Z,27.80
2018-06-09T18:08:50.998Z,27.70
2018-06-09T18:10:55.924Z,27.80
2018-06-09T18:13:00.835Z,27.90
2018-06-09T18:15:05.694Z,27.70
2018-06-09T18:17:10.475Z,27.60
2018-06-09T18:19:15.299Z,27.80
2018-06-09T18:21:20.294Z,27.50
2018-06-09T18:23:25.193Z,27.40
2018-06-09T18:25:30.148Z,27.20
2018-06-09T18:27:35.153Z,27.10
2018-06-09T18:29:39.957Z,27.10
2018-06-09T18:31:44.795Z,26.80
2018-06-09T18:33:49.972Z,26.70
2018-06-09T18:35:54.815Z,26.70
2018-06-09T18:37:59.657Z,26.70
2018-06-09T18:40:04.661Z,26.60
2018-06-09T18:42:09.594Z,26.50
2018-06-09T18:44:14.344Z,26.30
2018-06-09T18:46:19.215Z,26.30
2018-06-09T18:48:23.981Z,26.30
2018-06-09T18:50:28.923Z,26.30
2018-06-09T18:52:33.788Z,26.10
2018-06-09T18:54:38.948Z,26.00
2018-06-09T18:56:43.943Z,26.10
2018-06-09T18:58:49.046Z,26.20
2018-06-09T19:00:54.298Z,26.10
2018-06-09T19:02:59.769Z,26.10
2018-06-09T19:05:04.824Z,26.10
2018-06-09T19:07:09.741Z,26.10
2018-06-09T19:09:14.785Z,26.20
2018-06-09T19:11:19.817Z,26.10
2018-06-09T19:13:25.136Z,25.90
2018-06-09T19:15:30.255Z,25.90
2018-06-09T19:17:35.328Z,25.90
2018-06-09T19:19:40.415Z,25.90
2018-06-09T19:21:45.292Z,26.00
2018-06-09T19:23:50.186Z,26.00
2018-06-09T19:25:55.076Z,25.80
2018-06-09T19:27:59.962Z,25.80
2018-06-09T19:30:05.109Z,25.80
2018-06-09T19:32:10.066Z,25.80
2018-06-09T19:34:14.871Z,25.70
2018-06-09T19:36:19.685Z,25.70
2018-06-09T19:38:24.544Z,25.60
2018-06-09T19:40:29.389Z,25.70
2018-06-09T19:42:34.426Z,25.60
2018-06-09T19:44:39.349Z,25.50
2018-06-09T19:46:44.217Z,25.30
2018-06-09T19:48:49.266Z,25.30
2018-06-09T19:50:54.568Z,25.40
2018-06-09T19:52:59.742Z,25.30
2018-06-09T19:55:04.592Z,25.20
2018-06-09T19:57:09.799Z,25.10
2018-06-09T19:59:14.641Z,25.20
2018-06-09T20:01:19.627Z,25.30
2018-06-09T20:03:25.046Z,25.20
2018-06-09T20:05:29.858Z,25.20
2018-06-09T20:07:34.780Z,25.10
2018-06-09T20:09:40.061Z,25.10
2018-06-09T20:11:45.078Z,25.00
2018-06-09T20:13:49.974Z,25.00
2018-06-09T20:15:54.935Z,25.00
2018-06-09T20:18:00.029Z,25.00
2018-06-09T20:20:07.788Z,25.00
2018-06-09T20:22:12.909Z,24.90
2018-06-09T20:24:17.931Z,25.00
2018-06-09T20:26:22.799Z,24.90
2018-06-09T20:28:28.041Z,25.10
2018-06-09T20:30:32.963Z,25.20
2018-06-09T20:32:37.809Z,25.10
2018-06-09T20:34:42.793Z,25.10
2018-06-09T20:36:48.052Z,24.90
2018-06-09T20:38:53.598Z,25.10
2018-06-09T20:40:58.357Z,25.10
2018-06-09T20:43:03.291Z,24.90
2018-06-09T20:45:08.250Z,24.80
2018-06-09T20:47:13.305Z,24.80
2018-06-09T20:49:18.684Z,24.80
2018-06-09T20:51:23.653Z,24.80
2018-06-09T20:53:28.452Z,24.70
2018-06-09T20:55:33.294Z,24.70
2018-06-09T20:57:38.148Z,24.80
2018-06-09T20:59:42.989Z,24.70
2018-06-09T21:01:47.934Z,24.70
2018-06-09T21:03:52.678Z,24.80
2018-06-09T21:05:57.835Z,24.80
2018-06-09T21:08:03.153Z,24.70
2018-06-09T21:10:08.036Z,24.70
2018-06-09T21:12:13.043Z,24.60
2018-06-09T21:14:17.875Z,24.60
2018-06-09T21:16:22.758Z,24.50
2018-06-09T21:18:27.631Z,24.50
2018-06-09T21:20:32.443Z,24.40
2018-06-09T21:22:37.406Z,24.40
2018-06-09T21:24:42.294Z,24.40
2018-06-09T21:26:52.205Z,24.40
2018-06-09T21:28:57.506Z,24.40
2018-06-09T21:31:07.459Z,24.30
2018-06-09T21:35:35.914Z,24.40
2018-06-09T21:37:47.461Z,24.20
2018-06-09T21:39:58.867Z,24.10
2018-06-09T21:42:09.005Z,24.10
2018-06-09T21:44:14.608Z,24.10
2018-06-09T21:46:24.578Z,24.00
2018-06-09T21:48:29.609Z,24.00
2018-06-09T21:50:34.606Z,24.00
2018-06-09T21:52:39.621Z,24.10
2018-06-09T21:54:44.757Z,24.00
2018-06-09T21:56:49.684Z,24.20
2018-06-09T21:58:54.716Z,24.30
2018-06-09T22:00:59.626Z,24.30
2018-06-09T22:03:04.599Z,24.10
2018-06-09T22:05:09.637Z,24.00
2018-06-09T22:07:14.530Z,24.00
2018-06-09T22:09:19.472Z,24.00
2018-06-09T22:11:24.276Z,24.10
2018-06-09T22:13:29.753Z,24.20
2018-06-09T22:15:34.491Z,24.20
2018-06-09T22:17:39.438Z,24.00
2018-06-09T22:19:44.318Z,23.70
2018-06-09T22:21:49.312Z,23.10
2018-06-09T22:23:54.000Z,22.60
2018-06-09T22:26:00.698Z,22.20
2018-06-09T22:28:05.459Z,21.80
2018-06-09T22:30:10.215Z,21.60
2018-06-09T22:32:14.911Z,21.30
2018-06-09T22:34:19.688Z,21.10
2018-06-09T22:36:24.474Z,21.10
2018-06-09T22:38:29.586Z,20.80
2018-06-09T22:40:34.444Z,20.70
2018-06-09T22:42:39.315Z,20.50
2018-06-09T22:44:44.112Z,20.50
2018-06-09T22:46:48.949Z,20.20
2018-06-09T22:48:53.568Z,20.00
2018-06-09T22:50:58.311Z,19.80
2018-06-09T22:53:03.110Z,19.60
2018-06-09T22:55:07.882Z,19.40
2018-06-09T22:57:12.695Z,19.30
2018-06-09T22:59:17.651Z,19.20
2018-06-09T23:01:22.502Z,19.20
2018-06-09T23:03:27.447Z,19.20
2018-06-09T23:05:32.316Z,19.30
2018-06-09T23:07:37.107Z,19.30
2018-06-09T23:09:42.436Z,19.30
2018-06-09T23:11:47.378Z,19.40
2018-06-09T23:13:52.131Z,19.40
2018-06-09T23:15:57.404Z,19.40
2018-06-09T23:18:02.315Z,19.50
2018-06-09T23:20:07.283Z,19.50
2018-06-09T23:22:12.122Z,19.60
2018-06-09T23:24:16.827Z,19.70
2018-06-09T23:26:21.663Z,19.80
2018-06-09T23:28:26.714Z,19.70
2018-06-09T23:30:31.481Z,19.80
2018-06-09T23:32:36.219Z,19.80
2018-06-09T23:34:40.898Z,20.00
2018-06-09T23:36:45.786Z,20.10
2018-06-09T23:38:50.789Z,20.10
2018-06-09T23:40:55.480Z,19.90
2018-06-09T23:43:00.307Z,19.80
2018-06-09T23:45:05.266Z,19.70
2018-06-09T23:47:10.042Z,19.70
2018-06-09T23:49:14.838Z,19.70
2018-06-09T23:51:19.716Z,19.70
2018-06-09T23:53:26.474Z,19.70
2018-06-09T23:55:31.345Z,19.80
2018-06-09T23:57:36.128Z,19.80
2018-06-09T23:59:40.882Z,19.80
